Terminal Aerodrome Forecast
Issued by NWS

Home | Current Version | Previous Version | Text Only | Print | Product List | Glossary On
Versions: 1 2 3 4 5 6 7 8 9 10 11 12 13 14 15 16 17 18 19 20 21 22 23 24 25 26 27 28 29 30 31 32
000
FTUS44 KMOB 271158
TAFBFM
TAF
KBFM 271158Z 2712/2812 12013KT P6SM SCT080
     FM271400 14007KT P6SM BKN050
     FM271800 17014G20KT 4SM TSRA BKN030CB
     FM280300 14006KT P6SM BKN010
     FM280400 13004KT 1/2SM FG OVC004=

USA.gov is the U.S. government's official web portal to all federal, state and local government web resources and services.